« Back
NWS Peachtree City, Ga » Text Product » MCN Terminal Aerodrome Forecast


Printer-friendly Version
Current Version              Previous Versions:   1  2  3  4  5  6  7  8  9  

Terminal Aerodrome Forecast

907
FTUS42 KFFC 301402 AAA
TAFMCN
TAF AMD
KMCN 301402Z 3014/3112 23007KT 4SM -RA BR SCT008 BKN025
      TEMPO 3014/3017 1SM RA BR BKN008
     FM301700 25008KT 5SM -RA BR BKN025
     FM302000 29010KT P6SM SCT035
     FM310000 30005KT P6SM SKC
     FM310500 34003KT P6SM SKC=

USA.gov is the U.S. government's official web portal to all federal, state and local government web resources and services.